sensor_id;sensor_type;location;lat;lon;timestamp;temperature;humidity
29501;DHT22;16450;50.288;10.966;2022-07-29T00:02:40;21.10;39.20
29501;DHT22;16450;50.288;10.966;2022-07-29T00:05:41;21.00;39.30
29501;DHT22;16450;50.288;10.966;2022-07-29T00:08:42;21.00;39.30
29501;DHT22;16450;50.288;10.966;2022-07-29T00:11:43;21.00;39.40
29501;DHT22;16450;50.288;10.966;2022-07-29T00:14:43;21.00;39.30
29501;DHT22;16450;50.288;10.966;2022-07-29T00:17:44;21.00;39.50
29501;DHT22;16450;50.288;10.966;2022-07-29T00:20:44;20.90;39.40
29501;DHT22;16450;50.288;10.966;2022-07-29T00:23:45;20.90;39.50
29501;DHT22;16450;50.288;10.966;2022-07-29T00:26:46;20.90;39.50
29501;DHT22;16450;50.288;10.966;2022-07-29T00:29:46;20.90;39.80
29501;DHT22;16450;50.288;10.966;2022-07-29T00:32:47;20.90;39.50
29501;DHT22;16450;50.288;10.966;2022-07-29T00:35:48;20.80;39.80
29501;DHT22;16450;50.288;10.966;2022-07-29T00:38:50;20.80;39.80
29501;DHT22;16450;50.288;10.966;2022-07-29T00:41:50;20.70;40.00
29501;DHT22;16450;50.288;10.966;2022-07-29T00:44:51;20.70;40.20
29501;DHT22;16450;50.288;10.966;2022-07-29T00:47:52;20.70;40.20
29501;DHT22;16450;50.288;10.966;2022-07-29T00:50:52;20.70;40.30
29501;DHT22;16450;50.288;10.966;2022-07-29T00:53:54;20.60;40.50
29501;DHT22;16450;50.288;10.966;2022-07-29T00:56:59;20.60;40.50
29501;DHT22;16450;50.288;10.966;2022-07-29T01:00:01;20.60;40.60
29501;DHT22;16450;50.288;10.966;2022-07-29T01:03:01;20.50;40.60
29501;DHT22;16450;50.288;10.966;2022-07-29T01:06:02;20.50;40.70
29501;DHT22;16450;50.288;10.966;2022-07-29T01:09:03;20.50;41.00
29501;DHT22;16450;50.288;10.966;2022-07-29T01:12:04;20.50;40.80
29501;DHT22;16450;50.288;10.966;2022-07-29T01:15:07;20.40;40.80
29501;DHT22;16450;50.288;10.966;2022-07-29T01:18:19;20.40;41.10
29501;DHT22;16450;50.288;10.966;2022-07-29T01:21:42;20.40;40.90
29501;DHT22;16450;50.288;10.966;2022-07-29T01:32:02;20.40;41.10
29501;DHT22;16450;50.288;10.966;2022-07-29T01:38:25;20.30;41.40
29501;DHT22;16450;50.288;10.966;2022-07-29T01:41:30;20.30;41.40
29501;DHT22;16450;50.288;10.966;2022-07-29T01:44:35;20.30;41.40
29501;DHT22;16450;50.288;10.966;2022-07-29T01:48:02;20.20;41.40
29501;DHT22;16450;50.288;10.966;2022-07-29T01:51:07;20.20;41.30
29501;DHT22;16450;50.288;10.966;2022-07-29T01:57:17;20.20;41.70
29501;DHT22;16450;50.288;10.966;2022-07-29T02:00:19;20.10;41.70
29501;DHT22;16450;50.288;10.966;2022-07-29T02:03:21;20.10;41.80
29501;DHT22;16450;50.288;10.966;2022-07-29T02:06:23;20.10;41.80
29501;DHT22;16450;50.288;10.966;2022-07-29T02:09:25;20.10;41.80
29501;DHT22;16450;50.288;10.966;2022-07-29T02:12:26;20.00;41.90
29501;DHT22;16450;50.288;10.966;2022-07-29T02:15:30;20.00;42.00
29501;DHT22;16450;50.288;10.966;2022-07-29T02:18:32;20.00;42.10
29501;DHT22;16450;50.288;10.966;2022-07-29T02:21:35;20.00;42.30
29501;DHT22;16450;50.288;10.966;2022-07-29T02:24:36;19.90;42.30
29501;DHT22;16450;50.288;10.966;2022-07-29T02:27:37;19.90;42.30
29501;DHT22;16450;50.288;10.966;2022-07-29T02:30:42;19.90;42.30
29501;DHT22;16450;50.288;10.966;2022-07-29T02:33:43;19.80;42.50
29501;DHT22;16450;50.288;10.966;2022-07-29T02:36:46;19.90;42.70
29501;DHT22;16450;50.288;10.966;2022-07-29T02:39:48;19.80;42.80
29501;DHT22;16450;50.288;10.966;2022-07-29T02:42:51;19.80;42.80
29501;DHT22;16450;50.288;10.966;2022-07-29T02:45:53;19.80;42.70
29501;DHT22;16450;50.288;10.966;2022-07-29T02:48:59;19.80;42.90
29501;DHT22;16450;50.288;10.966;2022-07-29T02:52:08;19.80;43.10
29501;DHT22;16450;50.288;10.966;2022-07-29T02:55:58;19.70;43.10
29501;DHT22;16450;50.288;10.966;2022-07-29T02:59:02;19.70;43.30
29501;DHT22;16450;50.288;10.966;2022-07-29T03:02:05;19.70;43.20
29501;DHT22;16450;50.288;10.966;2022-07-29T03:05:08;19.70;43.30
29501;DHT22;16450;50.288;10.966;2022-07-29T03:08:11;19.70;43.30
29501;DHT22;16450;50.288;10.966;2022-07-29T03:11:12;19.60;43.20
29501;DHT22;16450;50.288;10.966;2022-07-29T03:14:13;19.60;43.30
29501;DHT22;16450;50.288;10.966;2022-07-29T03:17:15;19.60;43.40
29501;DHT22;16450;50.288;10.966;2022-07-29T03:20:17;19.60;43.50
29501;DHT22;16450;50.288;10.966;2022-07-29T03:23:22;19.60;43.40
29501;DHT22;16450;50.288;10.966;2022-07-29T03:26:24;19.50;43.40
29501;DHT22;16450;50.288;10.966;2022-07-29T03:29:25;19.50;43.60
29501;DHT22;16450;50.288;10.966;2022-07-29T03:32:26;19.50;43.70
29501;DHT22;16450;50.288;10.966;2022-07-29T03:35:27;19.50;43.70
29501;DHT22;16450;50.288;10.966;2022-07-29T03:38:29;19.40;43.50
29501;DHT22;16450;50.288;10.966;2022-07-29T03:41:31;19.40;43.60
29501;DHT22;16450;50.288;10.966;2022-07-29T03:44:33;19.40;43.60
29501;DHT22;16450;50.288;10.966;2022-07-29T03:47:38;19.40;43.60
29501;DHT22;16450;50.288;10.966;2022-07-29T03:50:40;19.30;43.50
29501;DHT22;16450;50.288;10.966;2022-07-29T03:53:41;19.30;43.80
29501;DHT22;16450;50.288;10.966;2022-07-29T03:56:43;19.30;43.80
29501;DHT22;16450;50.288;10.966;2022-07-29T03:59:47;19.20;43.70
29501;DHT22;16450;50.288;10.966;2022-07-29T04:02:47;19.20;43.90
29501;DHT22;16450;50.288;10.966;2022-07-29T04:06:03;19.10;43.90
29501;DHT22;16450;50.288;10.966;2022-07-29T04:09:06;19.10;44.20
29501;DHT22;16450;50.288;10.966;2022-07-29T04:12:07;19.10;44.10
29501;DHT22;16450;50.288;10.966;2022-07-29T04:15:08;19.10;44.50
29501;DHT22;16450;50.288;10.966;2022-07-29T04:18:09;19.00;44.70
29501;DHT22;16450;50.288;10.966;2022-07-29T04:21:09;19.00;44.80
29501;DHT22;16450;50.288;10.966;2022-07-29T04:24:10;19.00;44.90
29501;DHT22;16450;50.288;10.966;2022-07-29T04:27:11;19.00;45.10
29501;DHT22;16450;50.288;10.966;2022-07-29T04:30:11;19.00;45.20
29501;DHT22;16450;50.288;10.966;2022-07-29T04:33:12;19.00;45.00
29501;DHT22;16450;50.288;10.966;2022-07-29T04:36:13;19.10;45.20
29501;DHT22;16450;50.288;10.966;2022-07-29T04:39:14;19.10;45.40
29501;DHT22;16450;50.288;10.966;2022-07-29T04:42:15;19.20;45.90
29501;DHT22;16450;50.288;10.966;2022-07-29T04:45:15;19.10;46.10
29501;DHT22;16450;50.288;10.966;2022-07-29T04:48:16;19.20;46.20
29501;DHT22;16450;50.288;10.966;2022-07-29T04:51:17;19.20;46.20
29501;DHT22;16450;50.288;10.966;2022-07-29T04:54:17;19.30;46.40
29501;DHT22;16450;50.288;10.966;2022-07-29T04:57:18;19.30;46.50
29501;DHT22;16450;50.288;10.966;2022-07-29T05:00:19;19.40;46.80
29501;DHT22;16450;50.288;10.966;2022-07-29T05:03:19;19.50;46.90
29501;DHT22;16450;50.288;10.966;2022-07-29T05:06:20;19.60;46.80
29501;DHT22;16450;50.288;10.966;2022-07-29T05:09:21;19.60;46.70
29501;DHT22;16450;50.288;10.966;2022-07-29T05:12:21;19.70;46.80
29501;DHT22;16450;50.288;10.966;2022-07-29T05:15:22;19.80;47.00
29501;DHT22;16450;50.288;10.966;2022-07-29T05:18:22;19.90;47.40
29501;DHT22;16450;50.288;10.966;2022-07-29T05:21:23;20.10;47.80
29501;DHT22;16450;50.288;10.966;2022-07-29T05:24:24;20.20;47.70
29501;DHT22;16450;50.288;10.966;2022-07-29T05:27:24;20.40;47.20
29501;DHT22;16450;50.288;10.966;2022-07-29T05:30:25;20.50;46.70
29501;DHT22;16450;50.288;10.966;2022-07-29T05:33:26;20.60;46.90
29501;DHT22;16450;50.288;10.966;2022-07-29T05:36:26;20.70;46.90
29501;DHT22;16450;50.288;10.966;2022-07-29T05:39:27;20.80;46.40
29501;DHT22;16450;50.288;10.966;2022-07-29T05:42:27;20.90;46.60
29501;DHT22;16450;50.288;10.966;2022-07-29T05:45:29;20.90;46.00
29501;DHT22;16450;50.288;10.966;2022-07-29T05:48:30;20.80;45.70
29501;DHT22;16450;50.288;10.966;2022-07-29T05:51:30;20.80;45.70
29501;DHT22;16450;50.288;10.966;2022-07-29T05:54:31;20.80;45.20
29501;DHT22;16450;50.288;10.966;2022-07-29T05:57:32;20.80;45.50
29501;DHT22;16450;50.288;10.966;2022-07-29T06:00:33;20.70;45.10
29501;DHT22;16450;50.288;10.966;2022-07-29T06:03:34;20.70;45.20
29501;DHT22;16450;50.288;10.966;2022-07-29T06:06:35;20.60;45.10
29501;DHT22;16450;50.288;10.966;2022-07-29T06:09:36;20.60;45.30
29501;DHT22;16450;50.288;10.966;2022-07-29T06:12:37;20.60;45.50
29501;DHT22;16450;50.288;10.966;2022-07-29T06:15:38;20.50;45.40
29501;DHT22;16450;50.288;10.966;2022-07-29T06:18:38;20.50;45.50
29501;DHT22;16450;50.288;10.966;2022-07-29T06:21:43;20.50;45.40
29501;DHT22;16450;50.288;10.966;2022-07-29T06:24:44;20.50;45.80
29501;DHT22;16450;50.288;10.966;2022-07-29T06:27:44;20.60;46.00
29501;DHT22;16450;50.288;10.966;2022-07-29T06:30:45;20.50;45.70
29501;DHT22;16450;50.288;10.966;2022-07-29T06:33:46;20.50;45.90
29501;DHT22;16450;50.288;10.966;2022-07-29T06:36:46;20.50;45.90
29501;DHT22;16450;50.288;10.966;2022-07-29T06:39:47;20.60;46.20
29501;DHT22;16450;50.288;10.966;2022-07-29T06:42:48;20.60;46.50
29501;DHT22;16450;50.288;10.966;2022-07-29T06:45:48;20.70;46.30
29501;DHT22;16450;50.288;10.966;2022-07-29T06:48:50;20.70;46.60
29501;DHT22;16450;50.288;10.966;2022-07-29T06:51:51;20.70;47.20
29501;DHT22;16450;50.288;10.966;2022-07-29T06:54:52;20.80;46.80
29501;DHT22;16450;50.288;10.966;2022-07-29T06:57:54;20.80;47.20
29501;DHT22;16450;50.288;10.966;2022-07-29T07:00:56;20.80;47.00
29501;DHT22;16450;50.288;10.966;2022-07-29T07:03:57;20.80;46.90
29501;DHT22;16450;50.288;10.966;2022-07-29T07:06:57;20.80;46.80
29501;DHT22;16450;50.288;10.966;2022-07-29T07:09:59;20.90;46.80
29501;DHT22;16450;50.288;10.966;2022-07-29T07:13:00;20.90;46.80
29501;DHT22;16450;50.288;10.966;2022-07-29T07:16:02;20.90;46.60
29501;DHT22;16450;50.288;10.966;2022-07-29T07:19:02;20.90;46.70
29501;DHT22;16450;50.288;10.966;2022-07-29T07:22:03;20.90;46.70
29501;DHT22;16450;50.288;10.966;2022-07-29T07:25:04;21.00;47.60
29501;DHT22;16450;50.288;10.966;2022-07-29T07:28:05;21.00;47.80
29501;DHT22;16450;50.288;10.966;2022-07-29T07:31:05;21.00;48.10
29501;DHT22;16450;50.288;10.966;2022-07-29T07:34:06;21.10;48.80
29501;DHT22;16450;50.288;10.966;2022-07-29T07:37:07;21.20;48.60
29501;DHT22;16450;50.288;10.966;2022-07-29T07:40:09;21.40;50.10
29501;DHT22;16450;50.288;10.966;2022-07-29T07:43:11;21.90;50.50
29501;DHT22;16450;50.288;10.966;2022-07-29T07:46:12;22.50;50.40
29501;DHT22;16450;50.288;10.966;2022-07-29T07:49:13;22.90;49.70
29501;DHT22;16450;50.288;10.966;2022-07-29T07:52:15;23.40;50.30
29501;DHT22;16450;50.288;10.966;2022-07-29T07:55:16;24.10;49.90
29501;DHT22;16450;50.288;10.966;2022-07-29T07:58:17;24.70;49.60
29501;DHT22;16450;50.288;10.966;2022-07-29T08:01:17;25.40;49.00
29501;DHT22;16450;50.288;10.966;2022-07-29T08:04:21;26.00;47.90
29501;DHT22;16450;50.288;10.966;2022-07-29T08:07:21;26.40;47.00
29501;DHT22;16450;50.288;10.966;2022-07-29T08:10:22;27.00;46.50
29501;DHT22;16450;50.288;10.966;2022-07-29T08:13:41;27.50;45.60
29501;DHT22;16450;50.288;10.966;2022-07-29T08:16:42;28.00;44.80
29501;DHT22;16450;50.288;10.966;2022-07-29T08:19:46;28.50;43.50
29501;DHT22;16450;50.288;10.966;2022-07-29T08:22:48;28.90;42.40
29501;DHT22;16450;50.288;10.966;2022-07-29T08:25:49;29.20;42.80
29501;DHT22;16450;50.288;10.966;2022-07-29T08:28:50;29.50;41.60
29501;DHT22;16450;50.288;10.966;2022-07-29T08:31:51;29.70;40.80
29501;DHT22;16450;50.288;10.966;2022-07-29T08:34:51;30.00;40.40
29501;DHT22;16450;50.288;10.966;2022-07-29T08:37:53;30.20;39.90
29501;DHT22;16450;50.288;10.966;2022-07-29T08:40:54;30.40;39.90
29501;DHT22;16450;50.288;10.966;2022-07-29T08:43:55;30.60;38.90
29501;DHT22;16450;50.288;10.966;2022-07-29T08:46:56;30.70;38.90
29501;DHT22;16450;50.288;10.966;2022-07-29T08:49:57;30.80;38.50
29501;DHT22;16450;50.288;10.966;2022-07-29T08:52:57;31.00;38.50
29501;DHT22;16450;50.288;10.966;2022-07-29T08:55:58;31.10;38.50
29501;DHT22;16450;50.288;10.966;2022-07-29T08:59:03;31.30;38.30
29501;DHT22;16450;50.288;10.966;2022-07-29T09:02:07;31.50;37.60
29501;DHT22;16450;50.288;10.966;2022-07-29T09:05:12;31.70;37.20
29501;DHT22;16450;50.288;10.966;2022-07-29T09:08:17;31.80;37.50
29501;DHT22;16450;50.288;10.966;2022-07-29T09:11:18;31.90;36.70
29501;DHT22;16450;50.288;10.966;2022-07-29T09:14:18;31.80;36.20
29501;DHT22;16450;50.288;10.966;2022-07-29T09:17:39;31.60;35.40
29501;DHT22;16450;50.288;10.966;2022-07-29T09:20:51;31.30;34.20
29501;DHT22;16450;50.288;10.966;2022-07-29T09:24:13;30.90;35.00
29501;DHT22;16450;50.288;10.966;2022-07-29T09:30:17;30.10;35.20
29501;DHT22;16450;50.288;10.966;2022-07-29T09:33:19;29.80;36.00
29501;DHT22;16450;50.288;10.966;2022-07-29T09:36:19;29.40;36.30
29501;DHT22;16450;50.288;10.966;2022-07-29T09:39:36;29.10;36.30
29501;DHT22;16450;50.288;10.966;2022-07-29T09:42:38;28.80;36.60
29501;DHT22;16450;50.288;10.966;2022-07-29T09:45:39;28.50;36.80
29501;DHT22;16450;50.288;10.966;2022-07-29T09:48:40;28.10;37.60
29501;DHT22;16450;50.288;10.966;2022-07-29T09:51:40;27.80;37.90
29501;DHT22;16450;50.288;10.966;2022-07-29T09:54:41;27.50;38.30
29501;DHT22;16450;50.288;10.966;2022-07-29T09:57:42;27.10;39.10
29501;DHT22;16450;50.288;10.966;2022-07-29T10:00:45;26.70;40.10
29501;DHT22;16450;50.288;10.966;2022-07-29T10:03:52;26.40;41.60
29501;DHT22;16450;50.288;10.966;2022-07-29T10:07:01;26.00;43.70
29501;DHT22;16450;50.288;10.966;2022-07-29T10:10:01;25.60;44.90
29501;DHT22;16450;50.288;10.966;2022-07-29T10:13:08;25.20;44.60
29501;DHT22;16450;50.288;10.966;2022-07-29T10:16:09;24.70;45.90
29501;DHT22;16450;50.288;10.966;2022-07-29T10:19:10;24.30;46.20
29501;DHT22;16450;50.288;10.966;2022-07-29T10:22:13;23.80;47.10
29501;DHT22;16450;50.288;10.966;2022-07-29T10:25:15;23.40;48.10
29501;DHT22;16450;50.288;10.966;2022-07-29T10:28:16;23.10;49.30
29501;DHT22;16450;50.288;10.966;2022-07-29T10:31:35;22.80;50.00
29501;DHT22;16450;50.288;10.966;2022-07-29T10:44:28;22.00;54.80
29501;DHT22;16450;50.288;10.966;2022-07-29T10:47:29;21.80;53.40
29501;DHT22;16450;50.288;10.966;2022-07-29T10:51:00;21.70;53.80
29501;DHT22;16450;50.288;10.966;2022-07-29T10:54:01;21.70;56.10
29501;DHT22;16450;50.288;10.966;2022-07-29T10:57:27;21.60;54.70
29501;DHT22;16450;50.288;10.966;2022-07-29T11:00:30;21.60;56.70
29501;DHT22;16450;50.288;10.966;2022-07-29T11:03:44;21.70;56.20
29501;DHT22;16450;50.288;10.966;2022-07-29T11:17:05;22.40;58.30
29501;DHT22;16450;50.288;10.966;2022-07-29T11:20:45;22.60;57.70
29501;DHT22;16450;50.288;10.966;2022-07-29T11:23:46;22.70;58.20
29501;DHT22;16450;50.288;10.966;2022-07-29T11:27:10;22.80;58.00
29501;DHT22;16450;50.288;10.966;2022-07-29T11:30:12;22.90;58.10
29501;DHT22;16450;50.288;10.966;2022-07-29T11:33:33;23.00;58.10
29501;DHT22;16450;50.288;10.966;2022-07-29T11:36:34;23.10;58.30
29501;DHT22;16450;50.288;10.966;2022-07-29T11:39:42;23.10;57.80
29501;DHT22;16450;50.288;10.966;2022-07-29T11:42:43;23.20;58.20
29501;DHT22;16450;50.288;10.966;2022-07-29T11:45:46;23.40;58.40
29501;DHT22;16450;50.288;10.966;2022-07-29T11:48:47;23.40;58.60
29501;DHT22;16450;50.288;10.966;2022-07-29T11:51:52;23.50;58.30
29501;DHT22;16450;50.288;10.966;2022-07-29T11:54:57;23.70;58.80
29501;DHT22;16450;50.288;10.966;2022-07-29T11:57:59;23.90;59.50
29501;DHT22;16450;50.288;10.966;2022-07-29T12:01:00;24.10;59.70
29501;DHT22;16450;50.288;10.966;2022-07-29T12:04:05;24.40;60.10
29501;DHT22;16450;50.288;10.966;2022-07-29T12:07:07;24.60;59.20
29501;DHT22;16450;50.288;10.966;2022-07-29T12:10:08;24.80;58.40
29501;DHT22;16450;50.288;10.966;2022-07-29T12:13:10;25.00;57.50
29501;DHT22;16450;50.288;10.966;2022-07-29T12:16:11;25.10;56.60
29501;DHT22;16450;50.288;10.966;2022-07-29T12:19:11;25.20;56.10
29501;DHT22;16450;50.288;10.966;2022-07-29T12:22:12;25.30;56.10
29501;DHT22;16450;50.288;10.966;2022-07-29T12:25:24;25.30;56.10
29501;DHT22;16450;50.288;10.966;2022-07-29T12:28:25;25.40;56.40
29501;DHT22;16450;50.288;10.966;2022-07-29T12:31:26;25.50;56.30
29501;DHT22;16450;50.288;10.966;2022-07-29T12:34:28;25.60;56.60
29501;DHT22;16450;50.288;10.966;2022-07-29T12:37:30;25.70;56.60
29501;DHT22;16450;50.288;10.966;2022-07-29T12:40:30;25.80;56.80
29501;DHT22;16450;50.288;10.966;2022-07-29T12:43:32;26.00;56.10
29501;DHT22;16450;50.288;10.966;2022-07-29T12:46:33;26.10;55.70
29501;DHT22;16450;50.288;10.966;2022-07-29T12:49:33;26.20;55.10
29501;DHT22;16450;50.288;10.966;2022-07-29T12:52:35;26.20;55.10
29501;DHT22;16450;50.288;10.966;2022-07-29T12:58:43;26.40;53.20
29501;DHT22;16450;50.288;10.966;2022-07-29T13:01:46;26.50;53.50
29501;DHT22;16450;50.288;10.966;2022-07-29T13:04:57;26.60;53.00
29501;DHT22;16450;50.288;10.966;2022-07-29T13:08:10;26.70;51.60
29501;DHT22;16450;50.288;10.966;2022-07-29T13:11:27;26.70;50.20
29501;DHT22;16450;50.288;10.966;2022-07-29T13:14:37;26.80;50.10
29501;DHT22;16450;50.288;10.966;2022-07-29T13:17:42;26.80;50.30
29501;DHT22;16450;50.288;10.966;2022-07-29T13:20:43;26.90;49.70
29501;DHT22;16450;50.288;10.966;2022-07-29T13:23:44;26.90;49.90
29501;DHT22;16450;50.288;10.966;2022-07-29T13:26:44;26.90;50.10
29501;DHT22;16450;50.288;10.966;2022-07-29T13:29:46;27.00;50.00
29501;DHT22;16450;50.288;10.966;2022-07-29T13:32:47;27.10;49.40
29501;DHT22;16450;50.288;10.966;2022-07-29T13:35:47;27.20;48.80
29501;DHT22;16450;50.288;10.966;2022-07-29T13:38:48;27.30;48.60
29501;DHT22;16450;50.288;10.966;2022-07-29T13:41:49;27.50;48.30
29501;DHT22;16450;50.288;10.966;2022-07-29T13:44:49;27.70;47.80
29501;DHT22;16450;50.288;10.966;2022-07-29T13:47:51;27.80;46.90
29501;DHT22;16450;50.288;10.966;2022-07-29T13:50:52;28.00;47.40
29501;DHT22;16450;50.288;10.966;2022-07-29T13:53:53;28.10;46.40
29501;DHT22;16450;50.288;10.966;2022-07-29T13:56:53;28.20;46.10
29501;DHT22;16450;50.288;10.966;2022-07-29T13:59:54;28.40;45.70
29501;DHT22;16450;50.288;10.966;2022-07-29T14:02:55;28.40;45.00
29501;DHT22;16450;50.288;10.966;2022-07-29T14:05:56;28.40;44.30
29501;DHT22;16450;50.288;10.966;2022-07-29T14:08:56;28.40;44.10
29501;DHT22;16450;50.288;10.966;2022-07-29T14:11:57;28.30;43.80
29501;DHT22;16450;50.288;10.966;2022-07-29T14:14:57;28.30;44.20
29501;DHT22;16450;50.288;10.966;2022-07-29T14:17:58;28.20;44.10
29501;DHT22;16450;50.288;10.966;2022-07-29T14:20:59;28.10;43.80
29501;DHT22;16450;50.288;10.966;2022-07-29T14:24:00;28.10;43.80
29501;DHT22;16450;50.288;10.966;2022-07-29T14:27:01;28.10;43.70
29501;DHT22;16450;50.288;10.966;2022-07-29T14:30:01;28.10;43.20
29501;DHT22;16450;50.288;10.966;2022-07-29T14:33:02;28.00;43.10
29501;DHT22;16450;50.288;10.966;2022-07-29T14:36:03;27.90;43.50
29501;DHT22;16450;50.288;10.966;2022-07-29T14:39:04;27.80;43.30
29501;DHT22;16450;50.288;10.966;2022-07-29T14:42:05;27.70;43.60
29501;DHT22;16450;50.288;10.966;2022-07-29T14:45:07;27.70;43.80
29501;DHT22;16450;50.288;10.966;2022-07-29T14:48:08;27.60;43.20
29501;DHT22;16450;50.288;10.966;2022-07-29T14:51:08;27.60;43.40
29501;DHT22;16450;50.288;10.966;2022-07-29T14:54:09;27.60;43.80
29501;DHT22;16450;50.288;10.966;2022-07-29T14:57:10;27.50;43.60
29501;DHT22;16450;50.288;10.966;2022-07-29T15:00:12;27.50;43.30
29501;DHT22;16450;50.288;10.966;2022-07-29T15:03:13;27.40;43.30
29501;DHT22;16450;50.288;10.966;2022-07-29T15:06:13;27.40;43.60
29501;DHT22;16450;50.288;10.966;2022-07-29T15:09:14;27.30;43.60
29501;DHT22;16450;50.288;10.966;2022-07-29T15:12:14;27.20;44.20
29501;DHT22;16450;50.288;10.966;2022-07-29T15:15:15;27.20;44.10
29501;DHT22;16450;50.288;10.966;2022-07-29T15:18:17;27.30;44.40
29501;DHT22;16450;50.288;10.966;2022-07-29T15:21:17;27.30;44.10
29501;DHT22;16450;50.288;10.966;2022-07-29T15:24:19;27.30;44.00
29501;DHT22;16450;50.288;10.966;2022-07-29T15:27:19;27.30;43.60
29501;DHT22;16450;50.288;10.966;2022-07-29T15:30:20;27.30;43.90
29501;DHT22;16450;50.288;10.966;2022-07-29T15:33:21;27.30;44.10
29501;DHT22;16450;50.288;10.966;2022-07-29T15:36:21;27.20;44.10
29501;DHT22;16450;50.288;10.966;2022-07-29T15:39:22;27.20;44.00
29501;DHT22;16450;50.288;10.966;2022-07-29T15:42:23;27.10;43.20
29501;DHT22;16450;50.288;10.966;2022-07-29T15:45:24;27.10;43.30
29501;DHT22;16450;50.288;10.966;2022-07-29T15:48:24;27.00;43.30
29501;DHT22;16450;50.288;10.966;2022-07-29T15:51:26;27.00;42.90
29501;DHT22;16450;50.288;10.966;2022-07-29T15:54:27;26.90;42.90
29501;DHT22;16450;50.288;10.966;2022-07-29T15:57:28;26.90;42.90
29501;DHT22;16450;50.288;10.966;2022-07-29T16:00:28;26.90;42.60
29501;DHT22;16450;50.288;10.966;2022-07-29T16:03:29;26.80;42.60
29501;DHT22;16450;50.288;10.966;2022-07-29T16:06:30;26.80;42.50
29501;DHT22;16450;50.288;10.966;2022-07-29T16:09:31;26.70;42.60
29501;DHT22;16450;50.288;10.966;2022-07-29T16:12:32;26.60;42.40
29501;DHT22;16450;50.288;10.966;2022-07-29T16:15:33;26.60;42.80
29501;DHT22;16450;50.288;10.966;2022-07-29T16:18:33;26.60;42.90
29501;DHT22;16450;50.288;10.966;2022-07-29T16:21:35;26.50;42.80
29501;DHT22;16450;50.288;10.966;2022-07-29T16:24:36;26.40;42.90
29501;DHT22;16450;50.288;10.966;2022-07-29T16:27:38;26.40;43.30
29501;DHT22;16450;50.288;10.966;2022-07-29T16:30:38;26.30;43.40
29501;DHT22;16450;50.288;10.966;2022-07-29T16:33:39;26.20;43.50
29501;DHT22;16450;50.288;10.966;2022-07-29T16:36:39;26.10;44.80
29501;DHT22;16450;50.288;10.966;2022-07-29T16:39:41;25.90;45.80
29501;DHT22;16450;50.288;10.966;2022-07-29T16:42:42;25.60;47.70
29501;DHT22;16450;50.288;10.966;2022-07-29T16:45:43;25.30;48.70
29501;DHT22;16450;50.288;10.966;2022-07-29T16:48:43;24.90;49.40
29501;DHT22;16450;50.288;10.966;2022-07-29T16:51:44;24.30;50.10
29501;DHT22;16450;50.288;10.966;2022-07-29T16:54:47;23.70;51.30
29501;DHT22;16450;50.288;10.966;2022-07-29T16:57:47;23.10;52.50
29501;DHT22;16450;50.288;10.966;2022-07-29T17:00:48;22.50;54.20
29501;DHT22;16450;50.288;10.966;2022-07-29T17:03:49;22.10;55.90
29501;DHT22;16450;50.288;10.966;2022-07-29T17:07:07;21.70;57.80
29501;DHT22;16450;50.288;10.966;2022-07-29T17:10:09;21.30;60.00
29501;DHT22;16450;50.288;10.966;2022-07-29T17:13:10;21.00;62.30
29501;DHT22;16450;50.288;10.966;2022-07-29T17:16:10;20.70;64.40
29501;DHT22;16450;50.288;10.966;2022-07-29T17:19:11;20.40;66.50
29501;DHT22;16450;50.288;10.966;2022-07-29T17:22:12;20.20;67.80
29501;DHT22;16450;50.288;10.966;2022-07-29T17:25:13;19.90;69.60
29501;DHT22;16450;50.288;10.966;2022-07-29T17:28:13;19.80;71.40
29501;DHT22;16450;50.288;10.966;2022-07-29T17:31:14;19.70;72.00
29501;DHT22;16450;50.288;10.966;2022-07-29T17:34:14;19.60;73.30
29501;DHT22;16450;50.288;10.966;2022-07-29T17:37:15;19.50;74.10
29501;DHT22;16450;50.288;10.966;2022-07-29T17:40:16;19.50;75.30
29501;DHT22;16450;50.288;10.966;2022-07-29T17:43:17;19.40;76.20
29501;DHT22;16450;50.288;10.966;2022-07-29T17:46:18;19.40;77.10
29501;DHT22;16450;50.288;10.966;2022-07-29T17:49:19;19.40;77.70
29501;DHT22;16450;50.288;10.966;2022-07-29T17:52:20;19.40;78.10
29501;DHT22;16450;50.288;10.966;2022-07-29T17:55:20;19.30;78.30
29501;DHT22;16450;50.288;10.966;2022-07-29T17:58:21;19.40;79.00
29501;DHT22;16450;50.288;10.966;2022-07-29T18:01:22;19.40;79.70
29501;DHT22;16450;50.288;10.966;2022-07-29T18:04:23;19.40;79.90
29501;DHT22;16450;50.288;10.966;2022-07-29T18:07:24;19.40;80.50
29501;DHT22;16450;50.288;10.966;2022-07-29T18:10:25;19.40;80.80
29501;DHT22;16450;50.288;10.966;2022-07-29T18:13:25;19.40;80.90
29501;DHT22;16450;50.288;10.966;2022-07-29T18:16:26;19.40;80.90
29501;DHT22;16450;50.288;10.966;2022-07-29T18:19:27;19.40;80.60
29501;DHT22;16450;50.288;10.966;2022-07-29T18:22:29;19.30;80.40
29501;DHT22;16450;50.288;10.966;2022-07-29T18:25:29;19.30;81.00
29501;DHT22;16450;50.288;10.966;2022-07-29T18:28:30;19.30;81.40
29501;DHT22;16450;50.288;10.966;2022-07-29T18:31:32;19.20;81.50
29501;DHT22;16450;50.288;10.966;2022-07-29T18:34:32;19.20;81.80
29501;DHT22;16450;50.288;10.966;2022-07-29T18:37:33;19.20;82.10
29501;DHT22;16450;50.288;10.966;2022-07-29T18:40:34;19.20;82.40
29501;DHT22;16450;50.288;10.966;2022-07-29T18:43:35;19.20;82.50
29501;DHT22;16450;50.288;10.966;2022-07-29T18:46:37;19.20;82.60
29501;DHT22;16450;50.288;10.966;2022-07-29T18:49:37;19.20;82.90
29501;DHT22;16450;50.288;10.966;2022-07-29T18:52:38;19.20;83.10
29501;DHT22;16450;50.288;10.966;2022-07-29T18:55:39;19.20;83.20
29501;DHT22;16450;50.288;10.966;2022-07-29T18:58:39;19.10;83.40
29501;DHT22;16450;50.288;10.966;2022-07-29T19:01:40;19.10;83.50
29501;DHT22;16450;50.288;10.966;2022-07-29T19:04:40;19.10;83.90
29501;DHT22;16450;50.288;10.966;2022-07-29T19:07:41;19.10;84.20
29501;DHT22;16450;50.288;10.966;2022-07-29T19:10:42;19.00;84.10
29501;DHT22;16450;50.288;10.966;2022-07-29T19:13:42;19.00;84.30
29501;DHT22;16450;50.288;10.966;2022-07-29T19:16:43;19.00;84.50
29501;DHT22;16450;50.288;10.966;2022-07-29T19:19:43;19.00;84.60
29501;DHT22;16450;50.288;10.966;2022-07-29T19:22:44;19.00;84.70
29501;DHT22;16450;50.288;10.966;2022-07-29T19:25:45;18.90;84.90
29501;DHT22;16450;50.288;10.966;2022-07-29T19:28:46;18.90;84.90
29501;DHT22;16450;50.288;10.966;2022-07-29T19:31:47;18.80;85.00
29501;DHT22;16450;50.288;10.966;2022-07-29T19:34:48;18.80;85.40